Terminal Aerodrome Forecast
Issued by NWS

Home | Current Version | Previous Version | Text Only | Print | Product List | Glossary On
Versions: 1 2 3 4 5 6 7 8 9 10 11 12 13 14 15 16 17 18 19
000
FTUS46 KSTO 212320
TAFMHR
TAF
KMHR 212320Z 2200/2224 20009KT P6SM VCSH BKN070
      TEMPO 2200/2204 5SM SHRA BR BKN025
     FM220400 19007KT P6SM SCT050 SCT250
     FM221900 28008KT P6SM SCT030 BKN100=

USA.gov is the U.S. government's official web portal to all federal, state and local government web resources and services.